Home > Products > Valid Products > TAF

000
FTUS46 KEKA 281125
TAFUKI
TAF
KUKI 281125Z 2812/2912 00000KT P6SM SKC
     FM281900 32008KT P6SM SKC
     FM290200 VRB03KT P6SM SKC
     FM290500 00000KT P6SM SKC=



000
FTUS46 KEKA 281125
TAFACV
TAF
KACV 281125Z 2812/2912 00000KT P6SM SKC
     FM281500 VRB03KT P6SM SKC
     FM282000 33012KT P6SM SKC
     FM290300 VRB05KT P6SM SKC
     FM290800 00000KT P6SM SKC=



000
FTUS46 KEKA 281125
TAFCEC
TAF
KCEC 281125Z 2812/2912 VRB03KT P6SM SKC
     FM281800 34006KT P6SM SKC
     FM282200 34010KT P6SM SKC
     FM290200 35008KT P6SM SKC
     FM290700 01003KT P6SM SKC=



000
FTUS46 KEKA 280605 AAA
TAFUKI
TAF AMD
KUKI 280605Z 2806/2906 00000KT P6SM SKC
     FM282000 32006KT P6SM SKC
     FM290200 VRB03KT P6SM SKC=



000
FTUS46 KEKA 280605 AAA
TAFUKI
TAF AMD
KUKI 280605Z 2806/2906 00000KT P6SM SKC
     FM282000 32006KT P6SM SKC
     FM290200 VRB03KT P6SM SKC=



000
FTUS46 KEKA 280604 AAA
TAFACV
TAF AMD
KACV 280604Z 2806/2906 VRB03KT P6SM FEW070
     FM280800 00000KT P6SM SKC
     FM282000 32012KT P6SM SKC
     FM290300 VRB03KT P6SM SKC=



000
FTUS46 KEKA 280604 AAA
TAFACV
TAF AMD
KACV 280604Z 2806/2906 VRB03KT P6SM FEW070
     FM280800 00000KT P6SM SKC
     FM282000 32012KT P6SM SKC
     FM290300 VRB03KT P6SM SKC=



000
FTUS46 KEKA 280603 AAA
TAFCEC
TAF AMD
KCEC 280603Z 2806/2906 08003KT P6SM FEW070
     FM281000 VRB03KT P6SM SKC
     FM282000 34010KT P6SM SKC
     FM290200 35004KT P6SM SKC=



000
FTUS46 KEKA 280603 AAA
TAFCEC
TAF AMD
KCEC 280603Z 2806/2906 08003KT P6SM FEW070
     FM281000 VRB03KT P6SM SKC
     FM282000 34010KT P6SM SKC
     FM290200 35004KT P6SM SKC=



000
FTUS46 KEKA 280520
TAFACV
TAF
KACV 280520Z 2806/2906 05004KT P6SM -RA FEW005 FEW020 OVC045
     FM280800 03003KT P6SM SCT020
     FM282000 32012KT P6SM SKC
     FM290300 VRB03KT P6SM SKC=



000
FTUS46 KEKA 280520
TAFCEC
TAF
KCEC 280520Z 2806/2906 08003KT P6SM FEW011 SCT022 OVC070
     FM281000 36003KT P6SM SCT020
     FM282000 34010KT P6SM SKC
     FM290200 35004KT P6SM SKC=



000
FTUS46 KEKA 280520
TAFUKI
TAF
KUKI 280520Z 2806/2906 VRB03KT P6SM SKC
     FM282000 32006KT P6SM SKC
     FM290200 VRB03KT P6SM SKC=



000
FTUS46 KEKA 280520
TAFACV
TAF
KACV 280520Z 2806/2906 05004KT P6SM -RA FEW005 FEW020 OVC045
     FM280800 03003KT P6SM SCT020
     FM282000 32012KT P6SM SKC
     FM290300 VRB03KT P6SM SKC=



000
FTUS46 KEKA 280520
TAFCEC
TAF
KCEC 280520Z 2806/2906 08003KT P6SM FEW011 SCT022 OVC070
     FM281000 36003KT P6SM SCT020
     FM282000 34010KT P6SM SKC
     FM290200 35004KT P6SM SKC=



000
FTUS46 KEKA 280520
TAFUKI
TAF
KUKI 280520Z 2806/2906 VRB03KT P6SM SKC
     FM282000 32006KT P6SM SKC
     FM290200 VRB03KT P6SM SKC=



000
FTUS46 KEKA 280434 AAC
TAFCEC
TAF AMD
KCEC 280434Z 2805/2824 00000KT P6SM SCT021 OVC070
      TEMPO 2805/2809 BKN020
     FM281000 36003KT P6SM SCT020
     FM282000 34010KT P6SM SKC=



000
FTUS46 KEKA 280426 AAA
TAFUKI
TAF AMD
KUKI 280426Z 2804/2824 VRB03KT P6SM SKC
     FM282000 32006KT P6SM SKC=



000
FTUS46 KEKA 280425 AAC
TAFACV
TAF AMD
KACV 280425Z 2804/2824 05004KT P6SM -RA FEW005 FEW020 OVC045
     FM280800 03003KT P6SM SCT020
     FM282000 32012KT P6SM SKC=



000
FTUS46 KEKA 280424 AAB
TAFCEC
TAF AMD
KCEC 280424Z 2804/2824 08003KT P6SM FEW011 SCT022 OVC070
     FM281000 36003KT P6SM SCT020
     FM282000 34010KT P6SM SKC=



000
FTUS46 KEKA 280341 AAB
TAFACV
TAF AMD
KACV 280341Z 2804/2824 34006KT 4SM -RA BR SCT003 OVC019
     FM281100 03003KT P6SM SCT010=



000
FTUS46 KEKA 280010 RRA
TAFUKI
TAF
KUKI 280010Z 2800/2824 28011KT P6SM SKC
     FM280300 34003KT P6SM SCT250=



000
FTUS46 KEKA 280010 RRA
TAFCEC
TAF
KCEC 280010Z 2800/2824 18010KT P6SM OVC014
     FM280200 32006KT 4SM BR FEW007 OVC010
     FM281200 36003KT P6SM BKN015
     FM281600 34005KT P6SM SCT015=



000
FTUS46 KEKA 280010 RRA
TAFACV
TAF
KACV 280010Z 2800/2824 29006KT P6SM FEW026
     FM280300 35007KT 3SM BR OVC009
     FM281100 03003KT P6SM SCT010=



000
FTUS46 KEKA 272111 AAA
TAFCEC
TAF AMD
KCEC 272111Z 2721/2818 20008KT P6SM -DZ OVC015
     FM280200 32006KT 4SM BR FEW007 OVC010
     FM281200 36003KT P6SM BKN015
     FM281600 34005KT P6SM SCT015=



000
FTUS46 KEKA 271945 AAA
TAFACV
TAF AMD
KACV 271945Z 2720/2818 27004KT P6SM SCT006 OVC015
     FM272200 27006KT 6SM BR OVC015
     FM280300 35007KT 3SM BR OVC009
     FM281100 03003KT P6SM SCT010=



000
FTUS46 KEKA 271740
TAFCEC
TAF
KCEC 271740Z 2718/2818 15005KT P6SM OVC008
      TEMPO 2718/2722 BKN010
     FM272200 20010KT P6SM -DZ OVC015
     FM280200 32006KT 4SM BR FEW007 OVC010=



000
FTUS46 KEKA 271740
TAFUKI
TAF
KUKI 271740Z 2718/2818 00000KT P6SM SKC
     FM272000 30008KT P6SM SKC
     FM280300 34003KT P6SM SCT250=



000
FTUS46 KEKA 271740
TAFACV
TAF
KACV 271740Z 2718/2818 10003KT P6SM SCT006 OVC015
      TEMPO 2718/2722 BKN008
     FM272200 27006KT 6SM BR OVC015
     FM280300 35007KT 3SM BR OVC009
     FM281100 03003KT P6SM SCT010=



000
FTUS46 KEKA 271740
TAFCEC
TAF
KCEC 271740Z 2718/2818 15005KT P6SM OVC008
      TEMPO 2718/2722 BKN010
     FM272200 20010KT P6SM -DZ OVC015
     FM280200 32006KT 4SM BR FEW007 OVC010=



000
FTUS46 KEKA 271740
TAFACV
TAF
KACV 271740Z 2718/2818 10003KT P6SM SCT006 OVC015
      TEMPO 2718/2722 BKN008
     FM272200 27006KT 6SM BR OVC015
     FM280300 35007KT 3SM BR OVC009
     FM281100 03003KT P6SM SCT010=



000
FTUS46 KEKA 271740
TAFUKI
TAF
KUKI 271740Z 2718/2818 00000KT P6SM SKC
     FM272000 30008KT P6SM SKC
     FM280300 34003KT P6SM SCT250=



000
FTUS46 KEKA 271342 CCC
TAFCEC
TAF COR
KCEC 271342Z 2712/2812 VRB06KT P6SM OVC005
      TEMPO 2714/2716 00000KT 4SM BR OVC002
     FM271600 VRB06KT P6SM OVC005
     FM272000 20006KT P6SM OVC010
     FM272200 21008KT P6SM OVC010
     FM280200 32004KT 4SM BR OVC010=



000
FTUS46 KEKA 271342 CCC
TAFCEC
TAF COR
KCEC 271342Z 2712/2812 VRB06KT P6SM OVC005
      TEMPO 2714/2716 00000KT 4SM BR OVC002
     FM271600 VRB06KT P6SM OVC005
     FM272000 20006KT P6SM OVC010
     FM272200 21008KT P6SM OVC010
     FM280200 32004KT 4SM BR OVC010=



000
FTUS46 KEKA 271312 CCB
TAFCEC
TAF COR
KCEC 271312Z 2712/2812 VRB05KT 4SM BR OVC003
      TEMPO 2713/2714 00000KT 2SM BR OVC002
     FM271400 VRB06KT 4SM BR OVC003
     FM271600 VRB06KT 5SM BR OVC005
     FM272000 20006KT P6SM OVC010
     FM272200 21008KT P6SM OVC010
     FM280200 32004KT 4SM BR OVC010=



000
FTUS46 KEKA 271312 CCB
TAFCEC
TAF COR
KCEC 271312Z 2712/2812 VRB05KT 4SM BR OVC003
      TEMPO 2713/2714 00000KT 2SM BR OVC002
     FM271400 VRB06KT 4SM BR OVC003
     FM271600 VRB06KT 5SM BR OVC005
     FM272000 20006KT P6SM OVC010
     FM272200 21008KT P6SM OVC010
     FM280200 32004KT 4SM BR OVC010=



000
FTUS46 KEKA 271303 CCA
TAFCEC
TAF COR
KCEC 271303Z 2712/2812 VRB05KT 3SM BR OVC003
      TEMPO 2713/2714 00000KT 2SM BR OVC002
     FM271400 VRB06KT 3SM BR OVC003
     FM271600 VRB06KT 4SM BR OVC002
     FM272000 20006KT P6SM OVC010
     FM272200 21008KT P6SM OVC010
     FM280200 32004KT 4SM BR OVC010=



000
FTUS46 KEKA 271303 CCA
TAFCEC
TAF COR
KCEC 271303Z 2712/2812 VRB05KT 3SM BR OVC003
      TEMPO 2713/2714 00000KT 2SM BR OVC002
     FM271400 VRB06KT 3SM BR OVC003
     FM271600 VRB06KT 4SM BR OVC002
     FM272000 20006KT P6SM OVC010
     FM272200 21008KT P6SM OVC010
     FM280200 32004KT 4SM BR OVC010=



000
FTUS46 KEKA 271132
TAFUKI
TAF
KUKI 271132Z 2712/2812 00000KT P6SM SKC
     FM272000 30008KT P6SM SKC=



000
FTUS46 KEKA 271132
TAFCEC
TAF
KCEC 271132Z 2712/2812 VRB05KT 1SM BR OVC003
      TEMPO 2712/2714 00000KT 1/2SM FG VV002
     FM271400 VRB04KT 2SM BR OVC003
     FM271600 VRB06KT 4SM BR OVC002
     FM272000 20006KT P6SM OVC010
     FM272200 21008KT P6SM OVC010
     FM280200 32004KT 4SM BR OVC010=



000
FTUS46 KEKA 271132
TAFACV
TAF
KACV 271132Z 2712/2812 VRB03KT 2SM BR OVC003
      TEMPO 2712/2714 00000KT 1SM BR OVC002
     FM271400 VRB03KT 2SM BR OVC003
     FM271600 VRB03KT 4SM BR OVC005
     FM272100 26005KT P6SM OVC010
     FM280300 VRB03KT 3SM BR OVC009=



000
FTUS46 KEKA 271132
TAFCEC
TAF
KCEC 271132Z 2712/2812 VRB05KT 1SM BR OVC003
      TEMPO 2712/2714 00000KT 1/2SM FG VV002
     FM271400 VRB04KT 2SM BR OVC003
     FM271600 VRB06KT 4SM BR OVC002
     FM272000 20006KT P6SM OVC010
     FM272200 21008KT P6SM OVC010
     FM280200 32004KT 4SM BR OVC010=



000
FTUS46 KEKA 271132
TAFACV
TAF
KACV 271132Z 2712/2812 VRB03KT 2SM BR OVC003
      TEMPO 2712/2714 00000KT 1SM BR OVC002
     FM271400 VRB03KT 2SM BR OVC003
     FM271600 VRB03KT 4SM BR OVC005
     FM272100 26005KT P6SM OVC010
     FM280300 VRB03KT 3SM BR OVC009=



000
FTUS46 KEKA 271132
TAFUKI
TAF
KUKI 271132Z 2712/2812 00000KT P6SM SKC
     FM272000 30008KT P6SM SKC=



000
FTUS46 KEKA 271031 CCC
TAFACV
TAF COR
KACV 271031Z 2708/2806 00000KT 2SM BR OVC003
      TEMPO 2710/2713 VRB03KT 1SM BR VV002
     FM271300 VRB03KT 1/2SM FG VV001
     FM271600 VRB03KT 4SM BR OVC003
     FM272100 26005KT P6SM OVC010
     FM280300 VRB03KT 4SM BR OVC010=



000
FTUS46 KEKA 270931 CCB
TAFACV
TAF COR
KACV 270931Z 2708/2806 00000KT 1/4SM FG VV002
      TEMPO 2710/2713 VRB03KT 1/2SM FG VV001
     FM271300 VRB03KT 1/2SM FG VV001
     FM271600 VRB03KT 4SM BR OVC003
     FM272100 26005KT P6SM OVC010
     FM280300 VRB03KT 4SM BR OVC010=



000
FTUS46 KEKA 270931 CCB
TAFACV
TAF COR
KACV 270931Z 2708/2806 00000KT 1/4SM FG VV002
      TEMPO 2710/2713 VRB03KT 1/2SM FG VV001
     FM271300 VRB03KT 1/2SM FG VV001
     FM271600 VRB03KT 4SM BR OVC003
     FM272100 26005KT P6SM OVC010
     FM280300 VRB03KT 4SM BR OVC010=



000
FTUS46 KEKA 270928 CCA
TAFACV
TAF COR
KACV 270928Z 2708/2806 VRB03KT 1/2SM FG VV002
      TEMPO 2710/2713 1/4SM FG VV001
     FM271300 VRB03KT 1/2SM FG VV001
     FM271600 VRB03KT 4SM BR OVC003
     FM272100 26005KT P6SM OVC010
     FM280300 VRB03KT 4SM BR OVC010=



000
FTUS46 KEKA 270822 AAA
TAFUKI
TAF AMD
KUKI 270822Z 2708/2806 00000KT P6SM SKC=



000
FTUS46 KEKA 270822 AAA
TAFACV
TAF AMD
KACV 270822Z 2708/2806 VRB03KT 1/4SM FG VV002
      TEMPO 2710/2713 1/4SM FG VV001
     FM271300 VRB03KT 1/2SM FG VV001
     FM271600 VRB03KT 4SM BR OVC003
     FM272100 26005KT P6SM OVC010
     FM280300 VRB03KT 4SM BR OVC010=



000
FTUS46 KEKA 270822 AAA
TAFACV
TAF AMD
KACV 270822Z 2708/2806 VRB03KT 1/4SM FG VV002
      TEMPO 2710/2713 1/4SM FG VV001
     FM271300 VRB03KT 1/2SM FG VV001
     FM271600 VRB03KT 4SM BR OVC003
     FM272100 26005KT P6SM OVC010
     FM280300 VRB03KT 4SM BR OVC010=



000
FTUS46 KEKA 270822 AAA
TAFUKI
TAF AMD
KUKI 270822Z 2708/2806 00000KT P6SM SKC=



000
FTUS46 KEKA 270820 AAA
TAFCEC
TAF AMD
KCEC 270820Z 2708/2806 00000KT 1SM BR OVC003
      TEMPO 2708/2712 1/2SM FG VV002
     FM271200 VRB02KT 1SM BR OVC003
     FM271600 VRB03KT 2SM BR OVC002
     FM272000 20006KT P6SM OVC005
     FM280200 32004KT 4SM BR OVC010=



000
FTUS46 KEKA 270820 AAA
TAFCEC
TAF AMD
KCEC 270820Z 2708/2806 00000KT 1SM BR OVC003
      TEMPO 2708/2712 1/2SM FG VV002
     FM271200 VRB02KT 1SM BR OVC003
     FM271600 VRB03KT 2SM BR OVC002
     FM272000 20006KT P6SM OVC005
     FM280200 32004KT 4SM BR OVC010=



000
FTUS46 KEKA 270520
TAFUKI
TAF
KUKI 270520Z 2706/2806 26003KT P6SM SKC=



000
FTUS46 KEKA 270520
TAFCEC
TAF
KCEC 270520Z 2706/2806 00000KT 1SM BR VV002
      TEMPO 2706/2710 1/4SM FG VV001
     FM271200 00000KT 1/2SM FG VV001
     FM271600 VRB03KT 2SM BR OVC002
     FM272000 20006KT P6SM OVC005
     FM280200 32004KT 4SM BR OVC010=



000
FTUS46 KEKA 270520
TAFACV
TAF
KACV 270520Z 2706/2806 11003KT 1/2SM FG VV002
      TEMPO 2706/2707 1/4SM FG VV001
     FM270900 00000KT 1/2SM FG VV001
     FM271600 00000KT 4SM BR OVC003
     FM272100 26005KT P6SM OVC010
     FM280300 VRB03KT 4SM BR OVC010=



000
FTUS46 KEKA 270520
TAFACV
TAF
KACV 270520Z 2706/2806 11003KT 1/2SM FG VV002
      TEMPO 2706/2707 1/4SM FG VV001
     FM270900 00000KT 1/2SM FG VV001
     FM271600 00000KT 4SM BR OVC003
     FM272100 26005KT P6SM OVC010
     FM280300 VRB03KT 4SM BR OVC010=



000
FTUS46 KEKA 270520
TAFCEC
TAF
KCEC 270520Z 2706/2806 00000KT 1SM BR VV002
      TEMPO 2706/2710 1/4SM FG VV001
     FM271200 00000KT 1/2SM FG VV001
     FM271600 VRB03KT 2SM BR OVC002
     FM272000 20006KT P6SM OVC005
     FM280200 32004KT 4SM BR OVC010=



000
FTUS46 KEKA 270520
TAFUKI
TAF
KUKI 270520Z 2706/2806 26003KT P6SM SKC=



000
FTUS46 KEKA 270309 AAB
TAFACV
TAF AMD
KACV 270309Z 2703/2724 21004KT 1SM BR OVC002
      TEMPO 2703/2707 1/4SM FG VV001
     FM270900 00000KT 1/2SM FG VV001
     FM271600 00000KT 4SM BR OVC003
     FM272100 26005KT P6SM OVC010=



000
FTUS46 KEKA 270308 AAB
TAFCEC
TAF AMD
KCEC 270308Z 2703/2724 33008KT 1SM BR OVC001
      TEMPO 2703/2707 1/4SM FG VV001
     FM270900 00000KT 1SM BR OVC002
     FM271200 00000KT 1/2SM FG VV001
     FM271600 VRB03KT 2SM BR OVC002
     FM272000 20006KT P6SM OVC005=



000
FTUS46 KEKA 270308 AAB
TAFCEC
TAF AMD
KCEC 270308Z 2703/2724 33008KT 1SM BR OVC001
      TEMPO 2703/2707 1/4SM FG VV001
     FM270900 00000KT 1SM BR OVC002
     FM271200 00000KT 1/2SM FG VV001
     FM271600 VRB03KT 2SM BR OVC002
     FM272000 20006KT P6SM OVC005=



000
FTUS46 KEKA 270037 AAA
TAFCEC
TAF AMD
KCEC 270037Z 2701/2724 33008KT 2SM BR OVC002
      TEMPO 2701/2705 1/2SM FG VV001
     FM270900 00000KT 1SM BR OVC002
     FM271200 00000KT 1/2SM FG VV001
     FM271600 VRB03KT 2SM BR OVC002
     FM272000 20006KT P6SM OVC005=



000
FTUS46 KEKA 270037 AAA
TAFCEC
TAF AMD
KCEC 270037Z 2701/2724 33008KT 2SM BR OVC002
      TEMPO 2701/2705 1/2SM FG VV001
     FM270900 00000KT 1SM BR OVC002
     FM271200 00000KT 1/2SM FG VV001
     FM271600 VRB03KT 2SM BR OVC002
     FM272000 20006KT P6SM OVC005=



000
FTUS46 KEKA 270036 AAA
TAFACV
TAF AMD
KACV 270036Z 2701/2724 21004KT P6SM OVC004
      TEMPO 2701/2704 3SM BR OVC001
     FM270400 VRB03KT 3SM BR OVC005
     FM270900 00000KT 1/2SM FG VV001
     FM271600 00000KT 4SM BR OVC003
     FM272100 26005KT P6SM OVC010=



000
FTUS46 KEKA 270036 AAA
TAFACV
TAF AMD
KACV 270036Z 2701/2724 21004KT P6SM OVC004
      TEMPO 2701/2704 3SM BR OVC001
     FM270400 VRB03KT 3SM BR OVC005
     FM270900 00000KT 1/2SM FG VV001
     FM271600 00000KT 4SM BR OVC003
     FM272100 26005KT P6SM OVC010=



000
FTUS46 KEKA 262329
TAFACV
TAF
KACV 262329Z 2700/2724 25004KT P6SM OVC002
      TEMPO 2700/2704 3SM BR OVC001
     FM270400 VRB03KT 3SM BR OVC005
     FM270900 00000KT 1/2SM FG VV001
     FM271600 00000KT 4SM BR OVC003
     FM272100 26005KT P6SM OVC010=



000
FTUS46 KEKA 262329
TAFCEC
TAF
KCEC 262329Z 2700/2724 33008KT 1 1/2SM BR OVC002
     FM270300 VRB03KT 2SM BR OVC003
     FM270900 00000KT 1SM BR OVC002
     FM271200 00000KT 1/2SM FG VV001
     FM271600 VRB03KT 2SM BR OVC002
     FM272000 20006KT P6SM OVC005=



000
FTUS46 KEKA 262329
TAFUKI
TAF
KUKI 262329Z 2700/2724 VRB03KT P6SM SKC=



000
FTUS46 KEKA 262222 AAB
TAFACV
TAF AMD
KACV 262222Z 2622/2718 30003KT 3SM BR OVC002
      TEMPO 2622/2701 1SM BR OVC003
     FM270300 VRB03KT 3SM BR OVC005
     FM270800 00000KT 1SM BR OVC003=



000
FTUS46 KEKA 262222 AAB
TAFACV
TAF AMD
KACV 262222Z 2622/2718 30003KT 3SM BR OVC002
      TEMPO 2622/2701 1SM BR OVC003
     FM270300 VRB03KT 3SM BR OVC005
     FM270800 00000KT 1SM BR OVC003=



000
FTUS46 KEKA 262043 AAA
TAFCEC
TAF AMD
KCEC 262043Z 2621/2718 33007KT 5SM BR OVC002
     FM262300 33008KT 6SM BR OVC003
     FM270300 VRB03KT 2SM BR OVC003
     FM270900 00000KT 1SM BR OVC002=



000
FTUS46 KEKA 261904 AAA
TAFACV
TAF AMD
KACV 261904Z 2619/2718 30003KT P6SM OVC003
     FM262100 32007KT 6SM BR OVC007
     FM270300 VRB03KT 3SM BR OVC005
     FM270800 00000KT 1SM BR OVC003=



000
FTUS46 KEKA 261904 AAA
TAFACV
TAF AMD
KACV 261904Z 2619/2718 30003KT P6SM OVC003
     FM262100 32007KT 6SM BR OVC007
     FM270300 VRB03KT 3SM BR OVC005
     FM270800 00000KT 1SM BR OVC003=



000
FTUS46 KEKA 261737
TAFCEC
TAF
KCEC 261737Z 2618/2718 36005KT 3/4SM BR OVC002
      TEMPO 2618/2621 1/4SM FG
     FM262100 33007KT 6SM BR OVC006
     FM270300 VRB03KT 2SM BR OVC003
     FM270900 00000KT 1SM BR OVC002=



000
FTUS46 KEKA 261737
TAFUKI
TAF
KUKI 261737Z 2618/2718 00000KT P6SM SKC
     FM262200 30007KT P6SM SKC
     FM271400 00000KT 4SM BR FEW250=



000
FTUS46 KEKA 261737
TAFACV
TAF
KACV 261737Z 2618/2718 VRB03KT 3SM BR OVC002
      TEMPO 2618/2621 2SM BR
     FM262100 32007KT 6SM BR OVC007
     FM270300 VRB03KT 3SM BR OVC005
     FM270800 00000KT 1SM BR OVC003=



000
FTUS46 KEKA 261737
TAFACV
TAF
KACV 261737Z 2618/2718 VRB03KT 3SM BR OVC002
      TEMPO 2618/2621 2SM BR
     FM262100 32007KT 6SM BR OVC007
     FM270300 VRB03KT 3SM BR OVC005
     FM270800 00000KT 1SM BR OVC003=



000
FTUS46 KEKA 261737
TAFUKI
TAF
KUKI 261737Z 2618/2718 00000KT P6SM SKC
     FM262200 30007KT P6SM SKC
     FM271400 00000KT 4SM BR FEW250=



000
FTUS46 KEKA 261737
TAFCEC
TAF
KCEC 261737Z 2618/2718 36005KT 3/4SM BR OVC002
      TEMPO 2618/2621 1/4SM FG
     FM262100 33007KT 6SM BR OVC006
     FM270300 VRB03KT 2SM BR OVC003
     FM270900 00000KT 1SM BR OVC002=



000
FTUS46 KEKA 261619 AAA
TAFCEC
TAF AMD
KCEC 261619Z 2616/2712 36004KT 1/4SM FG OVC002
     FM262000 33006KT 2SM BR OVC003
     FM262200 32007KT P6SM OVC006
     FM270300 VRB03KT 2SM BR OVC003=



000
FTUS46 KEKA 261138
TAFCEC
TAF
KCEC 261138Z 2612/2712 35003KT 1SM BR OVC002
     FM261800 32007KT P6SM OVC006
     FM270300 VRB03KT 2SM BR OVC003=



000
FTUS46 KEKA 261138
TAFACV
TAF
KACV 261138Z 2612/2712 VRB03KT 2SM BR OVC002
     FM261800 32006KT P6SM OVC007
     FM270300 VRB03KT 3SM BR OVC004=



000
FTUS46 KEKA 261138
TAFCEC
TAF
KCEC 261138Z 2612/2712 35003KT 1SM BR OVC002
     FM261800 32007KT P6SM OVC006
     FM270300 VRB03KT 2SM BR OVC003=



000
FTUS46 KEKA 261138
TAFUKI
TAF
KUKI 261138Z 2612/2712 00000KT P6SM SKC=



000
FTUS46 KEKA 261138
TAFUKI
TAF
KUKI 261138Z 2612/2712 00000KT P6SM SKC=



000
FTUS46 KEKA 261138
TAFACV
TAF
KACV 261138Z 2612/2712 VRB03KT 2SM BR OVC002
     FM261800 32006KT P6SM OVC007
     FM270300 VRB03KT 3SM BR OVC004=



000
FTUS46 KEKA 260536 CCA
TAFACV
TAF COR
KACV 260536Z 2606/2706 VRB03KT P6SM OVC007
     FM261600 31006KT P6SM OVC010
     FM262100 32010KT P6SM SCT015
     FM270300 31005KT P6SM OVC008=



000
FTUS46 KEKA 260520
TAFACV
TAF
KACV 260520Z 2606/2706 34006KT P6SM SKC
     FM260800 34003KT P6SM OVC007
      TEMPO 2608/2612 3SM BR
     FM261600 31006KT P6SM OVC010
     FM262100 32010KT P6SM SCT015
     FM270300 31005KT P6SM OVC008=



000
FTUS46 KEKA 260520
TAFUKI
TAF
KUKI 260520Z 2606/2706 00000KT P6SM SKC=



000
FTUS46 KEKA 260520
TAFCEC
TAF
KCEC 260520Z 2606/2706 35008KT P6SM OVC004
     FM260800 35005KT P6SM OVC003
      TEMPO 2608/2612 3SM BR
     FM261700 32006KT P6SM OVC006
     FM262000 34010KT P6SM SCT010
     FM270300 35005KT P6SM OVC005=



000
FTUS46 KEKA 260428 AAA
TAFACV
TAF AMD
KACV 260428Z 2604/2624 34006KT P6SM SKC
     FM260800 32004KT P6SM OVC008
     FM261600 31006KT P6SM OVC015=



000
FTUS46 KEKA 260428 AAA
TAFACV
TAF AMD
KACV 260428Z 2604/2624 34006KT P6SM SKC
     FM260800 32004KT P6SM OVC008
     FM261600 31006KT P6SM OVC015=



000
FTUS46 KEKA 260420 AAA
TAFUKI
TAF AMD
KUKI 260420Z 2604/2624 VRB03KT P6SM SKC=



000
FTUS46 KEKA 260416 AAB
TAFCEC
TAF AMD
KCEC 260416Z 2604/2624 35008KT P6SM OVC004
     FM260800 35005KT P6SM OVC003
      TEMPO 2608/2612 3SM BR
     FM261700 32006KT P6SM OVC006
     FM262000 34010KT P6SM SCT010=



000
FTUS46 KEKA 260416 AAB
TAFCEC
TAF AMD
KCEC 260416Z 2604/2624 35008KT P6SM OVC004
     FM260800 35005KT P6SM OVC003
      TEMPO 2608/2612 3SM BR
     FM261700 32006KT P6SM OVC006
     FM262000 34010KT P6SM SCT010=



000
FTUS46 KEKA 260228 AAA
TAFCEC
TAF AMD
KCEC 260228Z 2602/2624 34008KT P6SM OVC007
     FM260800 35003KT 4SM BR OVC008
     FM261600 32006KT P6SM OVC015=



000
FTUS46 KEKA 260228 AAA
TAFCEC
TAF AMD
KCEC 260228Z 2602/2624 34008KT P6SM OVC007
     FM260800 35003KT 4SM BR OVC008
     FM261600 32006KT P6SM OVC015=



000
FTUS46 KEKA 252335
TAFUKI
TAF
KUKI 252335Z 2600/2624 32009KT P6SM SKC=



000
FTUS46 KEKA 252335
TAFACV
TAF
KACV 252335Z 2600/2624 32014KT P6SM SKC
     FM260200 32007KT P6SM SCT010
     FM260400 34003KT 4SM BR OVC008
     FM261600 31006KT P6SM OVC015=



000
FTUS46 KEKA 252335
TAFCEC
TAF
KCEC 252335Z 2600/2624 33010KT P6SM SKC
     FM260300 34005KT P6SM SCT010
     FM260600 35003KT 4SM BR OVC008
     FM261600 32006KT P6SM OVC015=



000
FTUS46 KEKA 252335
TAFACV
TAF
KACV 252335Z 2600/2624 32014KT P6SM SKC
     FM260200 32007KT P6SM SCT010
     FM260400 34003KT 4SM BR OVC008
     FM261600 31006KT P6SM OVC015=



000
FTUS46 KEKA 252335
TAFUKI
TAF
KUKI 252335Z 2600/2624 32009KT P6SM SKC=



000
FTUS46 KEKA 252335
TAFCEC
TAF
KCEC 252335Z 2600/2624 33010KT P6SM SKC
     FM260300 34005KT P6SM SCT010
     FM260600 35003KT 4SM BR OVC008
     FM261600 32006KT P6SM OVC015=



000
FTUS46 KEKA 252148 AAA
TAFACV
TAF AMD
KACV 252148Z 2522/2618 30006KT P6SM SCT250
     FM260200 32007KT P6SM SCT010
     FM260400 34003KT 4SM BR OVC008
     FM261600 31006KT P6SM OVC015=



000
FTUS46 KEKA 252148 AAA
TAFCEC
TAF AMD
KCEC 252148Z 2522/2618 33008KT P6SM SCT250
     FM260300 34005KT P6SM SCT010
     FM260600 35003KT 4SM BR OVC008
     FM261600 32006KT P6SM OVC015=



000
FTUS46 KEKA 251723
TAFACV
TAF
KACV 251723Z 2518/2618 27003KT P6SM SKC
     FM252000 30006KT P6SM SCT020
     FM260100 32007KT P6SM BKN020
     FM260400 34003KT 4SM BR OVC008
     FM261600 31006KT P6SM OVC015=



000
FTUS46 KEKA 251723
TAFUKI
TAF
KUKI 251723Z 2518/2618 VRB03KT P6SM SKC=



000
FTUS46 KEKA 251723
TAFCEC
TAF
KCEC 251723Z 2518/2618 08005KT P6SM SKC
     FM252000 31006KT P6SM SCT020
     FM260000 32005KT P6SM BKN020
     FM260300 35003KT 4SM BR OVC008
     FM261600 32006KT P6SM OVC015=



000
FTUS46 KEKA 251723
TAFUKI
TAF
KUKI 251723Z 2518/2618 VRB03KT P6SM SKC=



000
FTUS46 KEKA 251723
TAFCEC
TAF
KCEC 251723Z 2518/2618 08005KT P6SM SKC
     FM252000 31006KT P6SM SCT020
     FM260000 32005KT P6SM BKN020
     FM260300 35003KT 4SM BR OVC008
     FM261600 32006KT P6SM OVC015=



000
FTUS46 KEKA 251723
TAFACV
TAF
KACV 251723Z 2518/2618 27003KT P6SM SKC
     FM252000 30006KT P6SM SCT020
     FM260100 32007KT P6SM BKN020
     FM260400 34003KT 4SM BR OVC008
     FM261600 31006KT P6SM OVC015=



    US Dept of Commerce
    National Oceanic and Atmospheric Administration
    National Weather Service
    1325 East West Highway
    Silver Spring, MD 20910
    Page Author: NWS Internet Services Team
Disclaimer
Information Quality
Credits
Glossary
Privacy Policy
Freedom of Information Act (FOIA)
About Us
Career Opportunities